Ostaskov, Russia
Current Conditions -  °F | °C
As of 6:00 AM on Saturday 25 Oct 2014 (Local Time) from UUBW Reporting Station
Clear Clear  
Wind Chill:   Ceiling: Unl
Heat Index: 12°   Visibility: 6mi
Dew Point:   Wind: 4mph
Humidity: 85%   Direction: 330°NNW
Pressure: 30.65"   Gusts: NA
Location:  57.16°N, 33.11°E
Report Text: UUBW 250300Z 33002MPS CAVOK M11/M13 Q1038 NOSIG
Loading
Personal Weather Stations






























Interactive Weather Map
Tropical Storm Tracking
New forecast layout! Learn more

10-Day Weather Forecast

Advertisements
Track Severe Weather on mobile